createdAt,value
2023-04-04T00:00:15.447Z,100.00
2023-04-04T00:02:42.229Z,100.00
2023-04-04T00:05:09.659Z,100.00
2023-04-04T00:07:36.250Z,100.00
2023-04-04T00:10:03.183Z,100.00
2023-04-04T00:12:30.042Z,100.00
2023-04-04T00:14:57.479Z,100.00
2023-04-04T00:17:24.033Z,100.00
2023-04-04T00:19:50.534Z,100.00
2023-04-04T00:22:18.107Z,100.00
2023-04-04T00:24:44.593Z,100.00
2023-04-04T00:27:11.099Z,100.00
2023-04-04T00:29:37.977Z,100.00
2023-04-04T00:32:04.497Z,100.00
2023-04-04T00:34:31.255Z,100.00
2023-04-04T00:36:58.648Z,100.00
2023-04-04T00:39:26.536Z,100.00
2023-04-04T00:41:53.104Z,100.00
2023-04-04T00:44:19.758Z,100.00
2023-04-04T00:46:46.439Z,100.00
2023-04-04T00:49:12.868Z,100.00
2023-04-04T00:51:39.268Z,100.00
2023-04-04T00:54:05.968Z,100.00
2023-04-04T00:56:33.248Z,100.00
2023-04-04T00:59:00.849Z,100.00
2023-04-04T01:01:27.550Z,100.00
2023-04-04T01:03:54.583Z,100.00
2023-04-04T01:06:21.554Z,100.00
2023-04-04T01:08:48.997Z,100.00
2023-04-04T01:11:16.731Z,100.00
2023-04-04T01:13:44.261Z,100.00
2023-04-04T01:16:10.895Z,100.00
2023-04-04T01:18:41.206Z,100.00
2023-04-04T01:21:11.296Z,100.00
2023-04-04T01:23:58.658Z,100.00
2023-04-04T01:26:27.137Z,100.00
2023-04-04T01:28:54.531Z,100.00
2023-04-04T01:31:48.193Z,100.00
2023-04-04T01:34:24.474Z,100.00
2023-04-04T01:37:28.221Z,100.00
2023-04-04T01:40:05.249Z,100.00
2023-04-04T01:42:32.112Z,100.00
2023-04-04T01:44:58.687Z,100.00
2023-04-04T01:47:25.185Z,100.00
2023-04-04T01:49:53.972Z,100.00
2023-04-04T01:52:20.642Z,100.00
2023-04-04T01:54:47.064Z,100.00
2023-04-04T01:57:13.985Z,100.00
2023-04-04T01:59:40.379Z,100.00
2023-04-04T02:02:06.865Z,100.00
2023-04-04T02:04:33.954Z,100.00
2023-04-04T02:07:00.586Z,100.00
2023-04-04T02:09:27.086Z,100.00
2023-04-04T02:11:53.534Z,100.00
2023-04-04T02:14:20.108Z,100.00
2023-04-04T02:16:46.584Z,100.00
2023-04-04T02:19:13.102Z,100.00
2023-04-04T02:21:39.653Z,100.00
2023-04-04T02:24:06.544Z,100.00
2023-04-04T02:26:33.098Z,100.00
2023-04-04T02:28:59.686Z,100.00
2023-04-04T02:31:26.470Z,100.00
2023-04-04T02:33:52.933Z,100.00
2023-04-04T02:36:19.373Z,100.00
2023-04-04T02:38:45.837Z,100.00
2023-04-04T02:41:12.503Z,100.00
2023-04-04T02:43:38.965Z,100.00
2023-04-04T02:46:18.427Z,100.00
2023-04-04T02:48:47.949Z,100.00
2023-04-04T02:51:14.437Z,100.00
2023-04-04T02:53:40.854Z,100.00
2023-04-04T02:56:07.652Z,100.00
2023-04-04T02:58:34.626Z,100.00
2023-04-04T03:01:01.264Z,100.00
2023-04-04T03:03:27.893Z,100.00
2023-04-04T03:05:54.568Z,100.00
2023-04-04T03:08:20.974Z,100.00
2023-04-04T03:10:47.383Z,100.00
2023-04-04T03:13:13.811Z,100.00
2023-04-04T03:15:43.928Z,100.00
2023-04-04T03:18:14.013Z,100.00
2023-04-04T03:20:40.683Z,100.00
2023-04-04T03:23:07.352Z,100.00
2023-04-04T03:25:33.781Z,100.00
2023-04-04T03:28:08.749Z,100.00
2023-04-04T03:30:35.282Z,100.00
2023-04-04T03:33:08.428Z,100.00
2023-04-04T03:35:41.760Z,100.00
2023-04-04T03:38:09.460Z,100.00
2023-04-04T03:40:36.042Z,100.00
2023-04-04T03:43:02.584Z,100.00
2023-04-04T03:45:32.664Z,100.00
2023-04-04T03:47:59.108Z,100.00
2023-04-04T03:50:25.685Z,100.00
2023-04-04T03:52:52.133Z,100.00
2023-04-04T03:55:18.770Z,100.00
2023-04-04T03:57:45.500Z,100.00
2023-04-04T04:00:12.389Z,100.00
2023-04-04T04:02:39.432Z,100.00
2023-04-04T04:05:06.162Z,100.00
2023-04-04T04:07:32.635Z,100.00
2023-04-04T04:09:59.350Z,100.00
2023-04-04T04:12:26.282Z,100.00
2023-04-04T04:14:53.048Z,100.00
2023-04-04T04:17:19.782Z,100.00
2023-04-04T04:19:46.598Z,100.00
2023-04-04T04:22:12.999Z,100.00
2023-04-04T04:24:39.426Z,100.00
2023-04-04T04:27:06.920Z,100.00
2023-04-04T04:29:33.456Z,100.00
2023-04-04T04:31:59.982Z,100.00
2023-04-04T04:34:26.463Z,100.00
2023-04-04T04:36:53.832Z,100.00
2023-04-04T04:39:20.685Z,100.00
2023-04-04T04:41:47.337Z,100.00
2023-04-04T04:44:13.794Z,100.00
2023-04-04T04:46:40.738Z,100.00
2023-04-04T04:49:07.178Z,100.00
2023-04-04T04:51:33.660Z,100.00
2023-04-04T04:54:00.449Z,100.00
2023-04-04T04:56:26.877Z,100.00
2023-04-04T04:58:53.367Z,100.00
2023-04-04T05:01:19.857Z,100.00
2023-04-04T05:03:46.268Z,100.00
2023-04-04T05:06:12.727Z,100.00
2023-04-04T05:08:39.222Z,100.00
2023-04-04T05:11:05.843Z,100.00
2023-04-04T05:13:32.402Z,100.00
2023-04-04T05:15:59.100Z,100.00
2023-04-04T05:18:27.443Z,100.00
2023-04-04T05:20:54.743Z,100.00
2023-04-04T05:23:21.512Z,100.00
2023-04-04T05:25:53.356Z,100.00
2023-04-04T05:28:20.917Z,100.00
2023-04-04T05:30:47.559Z,100.00
2023-04-04T05:33:14.027Z,100.00
2023-04-04T05:35:41.344Z,100.00
2023-04-04T05:38:07.974Z,100.00
2023-04-04T05:40:34.436Z,100.00
2023-04-04T05:43:04.223Z,100.00
2023-04-04T05:45:31.644Z,100.00
2023-04-04T05:47:58.295Z,100.00
2023-04-04T05:50:25.446Z,100.00
2023-04-04T05:52:54.915Z,100.00
2023-04-04T05:55:21.677Z,100.00
2023-04-04T05:57:51.790Z,100.00
2023-04-04T06:00:19.561Z,100.00
2023-04-04T06:02:46.154Z,100.00
2023-04-04T06:05:12.700Z,100.00
2023-04-04T06:07:39.200Z,100.00
2023-04-04T06:10:06.420Z,100.00
2023-04-04T06:12:32.948Z,100.00
2023-04-04T06:14:59.410Z,100.00
2023-04-04T06:17:26.106Z,100.00
2023-04-04T06:19:53.834Z,100.00
2023-04-04T06:22:21.531Z,100.00
2023-04-04T06:24:48.036Z,100.00
2023-04-04T06:27:14.572Z,100.00
2023-04-04T06:29:41.536Z,100.00
2023-04-04T06:32:08.070Z,100.00
2023-04-04T06:34:34.467Z,100.00
2023-04-04T06:37:01.034Z,100.00
2023-04-04T06:39:27.605Z,100.00
2023-04-04T06:41:54.131Z,100.00
2023-04-04T06:44:20.651Z,100.00
2023-04-04T06:46:47.936Z,100.00
2023-04-04T06:49:14.422Z,100.00
2023-04-04T06:51:41.726Z,100.00
2023-04-04T06:54:08.697Z,100.00
2023-04-04T06:56:35.137Z,100.00
2023-04-04T06:59:01.642Z,100.00
2023-04-04T07:01:28.203Z,100.00
2023-04-04T07:03:54.807Z,100.00
2023-04-04T07:06:25.914Z,100.00
2023-04-04T07:08:52.936Z,100.00
2023-04-04T07:11:19.433Z,100.00
2023-04-04T07:13:45.972Z,100.00
2023-04-04T07:16:12.431Z,100.00
2023-04-04T07:18:38.958Z,100.00
2023-04-04T07:21:05.563Z,100.00
2023-04-04T07:23:31.982Z,100.00
2023-04-04T07:25:58.488Z,100.00
2023-04-04T07:28:24.988Z,100.00
2023-04-04T07:30:51.696Z,100.00
2023-04-04T07:33:18.135Z,100.00
2023-04-04T07:35:44.671Z,100.00
2023-04-04T07:38:11.107Z,100.00
2023-04-04T07:40:37.969Z,100.00
2023-04-04T07:43:04.740Z,100.00
2023-04-04T07:45:31.694Z,100.00
2023-04-04T07:47:58.226Z,100.00
2023-04-04T07:50:24.764Z,100.00
2023-04-04T07:52:58.623Z,100.00
2023-04-04T07:55:25.978Z,100.00
2023-04-04T07:57:53.168Z,98.45
2023-04-04T08:00:21.914Z,99.18
2023-04-04T08:02:53.564Z,95.98
2023-04-04T08:05:20.293Z,93.54
2023-04-04T08:07:47.364Z,90.33
2023-04-04T08:10:17.321Z,89.83
2023-04-04T08:12:45.023Z,89.28
2023-04-04T08:15:12.042Z,87.78
2023-04-04T08:17:38.803Z,88.41
2023-04-04T08:20:05.999Z,87.45
2023-04-04T08:22:33.738Z,87.29
2023-04-04T08:25:00.603Z,86.53
2023-04-04T08:27:27.374Z,84.42
2023-04-04T08:29:54.019Z,84.19
2023-04-04T08:32:20.553Z,82.45
2023-04-04T08:34:47.100Z,81.42
2023-04-04T08:37:13.585Z,81.49
2023-04-04T08:39:40.000Z,80.73
2023-04-04T08:42:07.584Z,80.00
2023-04-04T08:44:35.590Z,79.61
2023-04-04T08:47:09.222Z,80.37
2023-04-04T08:49:38.491Z,79.31
2023-04-04T08:52:06.420Z,79.87
2023-04-04T08:54:34.910Z,78.58
2023-04-04T08:57:02.454Z,78.42
2023-04-04T08:59:29.126Z,77.71
2023-04-04T09:02:10.972Z,77.31
2023-04-04T09:04:39.654Z,76.32
2023-04-04T09:07:06.999Z,75.50
2023-04-04T09:09:34.184Z,75.77
2023-04-04T09:12:02.113Z,75.96
2023-04-04T09:14:30.352Z,76.78
2023-04-04T09:16:57.360Z,76.41
2023-04-04T09:19:25.806Z,76.39
2023-04-04T09:21:52.915Z,75.82
2023-04-04T09:24:19.348Z,75.13
2023-04-04T09:26:53.716Z,73.75
2023-04-04T09:29:21.364Z,74.87
2023-04-04T09:31:49.525Z,76.21
2023-04-04T09:34:18.963Z,76.79
2023-04-04T09:36:46.269Z,75.81
2023-04-04T09:39:16.531Z,76.05
2023-04-04T09:41:45.474Z,76.37
2023-04-04T09:44:13.182Z,74.76
2023-04-04T09:46:40.664Z,74.67
2023-04-04T09:49:12.696Z,75.78
2023-04-04T09:51:41.860Z,74.96
2023-04-04T09:54:18.718Z,75.02
2023-04-04T09:56:49.914Z,73.02
2023-04-04T09:59:18.465Z,72.11
2023-04-04T10:01:46.149Z,71.72
2023-04-04T10:04:14.434Z,70.90
2023-04-04T10:06:43.898Z,71.82
2023-04-04T10:09:10.457Z,71.13
2023-04-04T10:11:38.545Z,71.37
2023-04-04T10:14:05.064Z,70.82
2023-04-04T10:16:33.647Z,70.13
2023-04-04T10:19:02.009Z,70.92
2023-04-04T10:21:29.065Z,71.59
2023-04-04T10:23:57.378Z,71.90
2023-04-04T10:26:25.983Z,70.32
2023-04-04T10:28:52.502Z,70.50
2023-04-04T10:31:26.087Z,70.98
2023-04-04T10:34:18.797Z,69.75
2023-04-04T10:36:50.150Z,67.25
2023-04-04T10:39:38.143Z,69.14
2023-04-04T10:42:07.045Z,69.17
2023-04-04T10:44:37.910Z,68.60
2023-04-04T10:47:17.415Z,66.33
2023-04-04T10:49:45.681Z,66.27
2023-04-04T10:52:17.574Z,67.45
2023-04-04T10:54:44.858Z,67.52
2023-04-04T10:57:14.073Z,65.68
2023-04-04T10:59:58.116Z,65.76
2023-04-04T11:02:47.054Z,65.51
2023-04-04T11:05:22.185Z,64.99
2023-04-04T11:10:37.305Z,63.97
2023-04-04T11:13:14.004Z,63.30
2023-04-04T11:15:53.541Z,64.15
2023-04-04T11:18:32.013Z,64.66
2023-04-04T11:21:06.729Z,64.61
2023-04-04T11:23:59.628Z,64.33
2023-04-04T11:26:26.391Z,64.27
2023-04-04T11:28:56.885Z,63.41
2023-04-04T11:31:25.807Z,62.97
2023-04-04T11:34:08.066Z,63.34
2023-04-04T11:36:38.121Z,64.34
2023-04-04T11:39:21.124Z,62.67
2023-04-04T11:42:10.143Z,61.21
2023-04-04T11:44:42.966Z,61.44
2023-04-04T11:47:13.547Z,60.20
2023-04-04T11:49:42.317Z,60.35
2023-04-04T11:52:11.548Z,61.63
2023-04-04T11:54:39.015Z,61.69
2023-04-04T11:57:11.903Z,61.67
2023-04-04T11:59:43.713Z,60.89
2023-04-04T12:02:11.318Z,61.50
2023-04-04T12:04:43.447Z,62.99
2023-04-04T12:07:10.771Z,62.15
2023-04-04T12:09:38.315Z,63.38
2023-04-04T12:12:05.135Z,62.98
2023-04-04T12:14:32.871Z,62.78
2023-04-04T12:16:59.900Z,63.47
2023-04-04T12:19:28.613Z,62.47
2023-04-04T12:21:57.533Z,64.12
2023-04-04T12:24:24.364Z,66.45
2023-04-04T12:26:52.441Z,68.75
2023-04-04T12:29:21.880Z,67.45
2023-04-04T12:31:49.740Z,66.70
2023-04-04T12:37:02.481Z,60.58
2023-04-04T12:39:29.801Z,63.42
2023-04-04T12:42:03.724Z,62.14
2023-04-04T12:44:32.491Z,63.45
2023-04-04T12:47:09.860Z,62.12
2023-04-04T12:49:43.134Z,60.72
2023-04-04T12:52:32.088Z,56.69
2023-04-04T12:55:08.098Z,58.06
2023-04-04T12:57:36.752Z,57.98
2023-04-04T13:00:06.199Z,61.03
2023-04-04T13:02:35.912Z,58.82
2023-04-04T13:05:03.628Z,58.85
2023-04-04T13:07:32.984Z,57.25
2023-04-04T13:10:04.537Z,56.42
2023-04-04T13:13:00.013Z,56.21
2023-04-04T13:15:50.345Z,53.86
2023-04-04T13:18:21.145Z,58.14
2023-04-04T13:20:52.028Z,50.91
2023-04-04T13:23:19.234Z,50.04
2023-04-04T13:25:46.174Z,49.78
2023-04-04T13:28:12.970Z,52.80
2023-04-04T13:30:43.567Z,50.70
2023-04-04T13:33:10.164Z,49.38
2023-04-04T13:35:37.120Z,49.90
2023-04-04T13:38:03.606Z,53.73
2023-04-04T13:40:30.171Z,51.31
2023-04-04T13:42:56.775Z,49.12
2023-04-04T13:45:23.665Z,49.36
2023-04-04T13:47:50.196Z,52.20
2023-04-04T13:50:16.772Z,47.80
2023-04-04T13:52:43.223Z,49.34
2023-04-04T13:55:10.770Z,49.69
2023-04-04T13:57:37.340Z,48.62
2023-04-04T14:00:05.558Z,50.61
2023-04-04T14:02:32.168Z,47.70
2023-04-04T14:04:58.690Z,48.85
2023-04-04T14:07:25.321Z,46.81
2023-04-04T14:09:51.782Z,48.96
2023-04-04T14:12:18.319Z,49.36
2023-04-04T14:14:44.756Z,48.55
2023-04-04T14:17:11.353Z,48.33
2023-04-04T14:19:39.304Z,48.69
2023-04-04T14:22:06.309Z,47.35
2023-04-04T14:24:32.844Z,45.27
2023-04-04T14:26:59.267Z,45.22
2023-04-04T14:29:25.700Z,44.96
2023-04-04T14:31:52.258Z,45.82
2023-04-04T14:34:18.776Z,46.60
2023-04-04T14:36:45.236Z,45.97
2023-04-04T14:39:12.823Z,44.52
2023-04-04T14:41:39.336Z,47.18
2023-04-04T14:44:06.461Z,46.14
2023-04-04T14:46:34.112Z,46.47
2023-04-04T14:49:01.269Z,46.94
2023-04-04T14:51:27.689Z,47.09
2023-04-04T14:53:54.161Z,46.43
2023-04-04T14:56:23.164Z,47.95
2023-04-04T14:58:50.714Z,49.21
2023-04-04T15:01:17.428Z,47.13
2023-04-04T15:03:44.051Z,46.92
2023-04-04T15:06:10.684Z,46.75
2023-04-04T15:08:37.841Z,45.98
2023-04-04T15:11:04.599Z,47.53
2023-04-04T15:13:31.369Z,44.96
2023-04-04T15:16:00.010Z,47.39
2023-04-04T15:18:26.592Z,47.78
2023-04-04T15:20:53.100Z,49.52
2023-04-04T15:23:19.661Z,49.05
2023-04-04T15:25:46.494Z,47.77
2023-04-04T15:28:12.990Z,48.90
2023-04-04T15:30:39.679Z,47.90
2023-04-04T15:33:06.396Z,49.59
2023-04-04T15:35:32.996Z,48.59
2023-04-04T15:37:59.531Z,49.12
2023-04-04T15:40:26.286Z,50.50
2023-04-04T15:42:52.733Z,50.28
2023-04-04T15:45:19.287Z,51.71
2023-04-04T15:47:46.143Z,51.87
2023-04-04T15:50:12.751Z,51.15
2023-04-04T15:52:39.275Z,51.86
2023-04-04T15:55:11.542Z,52.13
2023-04-04T15:57:38.362Z,51.36
2023-04-04T16:00:05.585Z,51.69
2023-04-04T16:02:32.184Z,52.30
2023-04-04T16:04:58.722Z,53.51
2023-04-04T16:07:25.883Z,54.64
2023-04-04T16:09:52.342Z,55.16
2023-04-04T16:12:20.104Z,54.16
2023-04-04T16:14:46.621Z,54.78
2023-04-04T16:17:13.092Z,56.19
2023-04-04T16:19:39.575Z,56.36
2023-04-04T16:22:06.364Z,58.00
2023-04-04T16:24:32.853Z,57.63
2023-04-04T16:26:59.301Z,56.73
2023-04-04T16:29:25.868Z,56.78
2023-04-04T16:31:53.103Z,56.60
2023-04-04T16:34:19.649Z,58.38
2023-04-04T16:36:46.254Z,59.28
2023-04-04T16:39:13.324Z,60.08
2023-04-04T16:41:41.121Z,60.36
2023-04-04T16:44:07.645Z,59.46
2023-04-04T16:46:34.172Z,60.71
2023-04-04T16:49:00.983Z,59.75
2023-04-04T16:51:28.596Z,60.83
2023-04-04T16:53:55.211Z,62.29
2023-04-04T16:56:21.637Z,62.83
2023-04-04T16:58:48.367Z,64.08
2023-04-04T17:01:16.560Z,66.34
2023-04-04T17:03:43.154Z,65.83
2023-04-04T17:06:09.835Z,65.98
2023-04-04T17:08:36.537Z,65.98
2023-04-04T17:11:03.150Z,68.61
2023-04-04T17:13:30.168Z,67.36
2023-04-04T17:15:57.596Z,65.68
2023-04-04T17:18:24.112Z,66.36
2023-04-04T17:20:52.196Z,67.27
2023-04-04T17:23:18.686Z,69.33
2023-04-04T17:25:45.106Z,69.70
2023-04-04T17:28:11.525Z,68.80
2023-04-04T17:30:38.009Z,72.42
2023-04-04T17:33:04.949Z,71.49
2023-04-04T17:35:31.471Z,69.49
2023-04-04T17:37:57.880Z,70.59
2023-04-04T17:40:24.391Z,71.52
2023-04-04T17:42:53.850Z,72.05
2023-04-04T17:45:20.348Z,76.10
2023-04-04T17:47:47.146Z,79.32
2023-04-04T17:50:13.670Z,82.01
2023-04-04T17:52:40.329Z,84.38
2023-04-04T17:55:08.606Z,84.71
2023-04-04T17:57:35.117Z,84.76
2023-04-04T18:00:01.686Z,84.92
2023-04-04T18:02:28.242Z,83.58
2023-04-04T18:04:56.925Z,85.53
2023-04-04T18:07:23.343Z,89.38
2023-04-04T18:09:49.825Z,91.08
2023-04-04T18:12:17.737Z,87.71
2023-04-04T18:14:44.212Z,88.41
2023-04-04T18:17:10.957Z,88.25
2023-04-04T18:19:38.962Z,88.30
2023-04-04T18:22:06.292Z,89.52
2023-04-04T18:24:32.731Z,90.73
2023-04-04T18:26:59.325Z,91.09
2023-04-04T18:29:26.841Z,93.17
2023-04-04T18:31:53.529Z,88.92
2023-04-04T18:34:20.030Z,87.36
2023-04-04T18:36:49.233Z,91.94
2023-04-04T18:39:17.312Z,93.59
2023-04-04T18:41:44.601Z,92.63
2023-04-04T18:44:11.726Z,95.34
2023-04-04T18:46:39.148Z,97.71
2023-04-04T18:49:05.739Z,100.00
2023-04-04T18:51:32.265Z,99.49
2023-04-04T18:53:58.756Z,98.44
2023-04-04T18:56:26.181Z,98.45
2023-04-04T18:58:52.715Z,100.00
2023-04-04T19:01:19.231Z,100.00
2023-04-04T19:03:51.324Z,100.00
2023-04-04T19:06:17.914Z,100.00
2023-04-04T19:08:44.570Z,100.00
2023-04-04T19:11:11.683Z,100.00
2023-04-04T19:13:38.328Z,100.00
2023-04-04T19:16:05.124Z,100.00
2023-04-04T19:18:31.624Z,100.00
2023-04-04T19:20:58.626Z,100.00
2023-04-04T19:23:25.526Z,100.00
2023-04-04T19:25:52.159Z,100.00
2023-04-04T19:28:18.641Z,100.00
2023-04-04T19:30:49.783Z,100.00
2023-04-04T19:33:18.629Z,100.00
2023-04-04T19:36:11.904Z,100.00
2023-04-04T19:38:42.283Z,100.00
2023-04-04T19:41:13.526Z,100.00
2023-04-04T19:43:41.856Z,100.00
2023-04-04T19:46:10.870Z,100.00
2023-04-04T19:48:49.263Z,100.00
2023-04-04T19:51:16.557Z,100.00
2023-04-04T19:53:44.981Z,100.00
2023-04-04T19:56:13.253Z,100.00
2023-04-04T19:58:39.894Z,100.00
2023-04-04T20:01:08.096Z,100.00
2023-04-04T20:03:39.211Z,100.00
2023-04-04T20:06:22.746Z,100.00
2023-04-04T20:08:51.991Z,100.00
2023-04-04T20:11:24.254Z,100.00
2023-04-04T20:13:50.914Z,100.00
2023-04-04T20:16:17.647Z,100.00
2023-04-04T20:18:46.385Z,100.00
2023-04-04T20:21:14.800Z,100.00
2023-04-04T20:23:53.183Z,100.00
2023-04-04T20:26:38.481Z,100.00
2023-04-04T20:29:13.653Z,100.00
2023-04-04T20:31:49.249Z,100.00
2023-04-04T20:34:37.143Z,100.00
2023-04-04T20:37:07.525Z,100.00
2023-04-04T20:39:45.121Z,100.00
2023-04-04T20:42:18.190Z,100.00
2023-04-04T20:44:45.318Z,100.00
2023-04-04T20:47:47.120Z,100.00
2023-04-04T20:50:22.556Z,100.00
2023-04-04T20:53:05.156Z,100.00
2023-04-04T20:55:33.770Z,100.00
2023-04-04T20:58:08.248Z,100.00
2023-04-04T21:00:39.937Z,100.00
2023-04-04T21:03:23.133Z,100.00
2023-04-04T21:05:49.730Z,100.00
2023-04-04T21:08:19.139Z,100.00
2023-04-04T21:10:51.252Z,100.00
2023-04-04T21:13:28.536Z,100.00
2023-04-04T21:16:00.919Z,100.00
2023-04-04T21:18:29.984Z,100.00
2023-04-04T21:20:56.454Z,100.00
2023-04-04T21:23:26.121Z,100.00
2023-04-04T21:26:01.544Z,100.00
2023-04-04T21:28:35.014Z,100.00
2023-04-04T21:31:06.663Z,100.00
2023-04-04T21:33:33.503Z,100.00
2023-04-04T21:36:00.307Z,100.00
2023-04-04T21:38:32.798Z,100.00
2023-04-04T21:40:59.911Z,100.00
2023-04-04T21:43:26.968Z,100.00
2023-04-04T21:45:56.729Z,100.00
2023-04-04T21:48:26.373Z,100.00
2023-04-04T21:50:53.393Z,100.00
2023-04-04T21:53:21.937Z,100.00
2023-04-04T21:55:48.368Z,100.00
2023-04-04T21:58:14.799Z,100.00
2023-04-04T22:00:41.914Z,100.00
2023-04-04T22:03:09.111Z,100.00
2023-04-04T22:05:39.089Z,100.00
2023-04-04T22:08:06.631Z,100.00
2023-04-04T22:10:33.596Z,100.00
2023-04-04T22:13:00.185Z,100.00
2023-04-04T22:15:29.738Z,100.00
2023-04-04T22:18:03.862Z,100.00
2023-04-04T22:20:33.669Z,100.00
2023-04-04T22:23:05.112Z,100.00
2023-04-04T22:25:33.811Z,100.00
2023-04-04T22:28:03.239Z,100.00
2023-04-04T22:30:31.847Z,100.00
2023-04-04T22:33:03.529Z,100.00
2023-04-04T22:35:30.290Z,100.00
2023-04-04T22:38:00.968Z,100.00
2023-04-04T22:40:28.688Z,100.00
2023-04-04T22:42:56.088Z,100.00
2023-04-04T22:45:23.924Z,100.00
2023-04-04T22:47:50.649Z,100.00
2023-04-04T22:50:19.264Z,100.00
2023-04-04T22:52:46.078Z,100.00
2023-04-04T22:55:15.461Z,100.00
2023-04-04T22:57:41.965Z,100.00
2023-04-04T23:00:11.195Z,100.00
2023-04-04T23:02:42.198Z,100.00
2023-04-04T23:05:09.912Z,100.00
2023-04-04T23:07:37.628Z,100.00
2023-04-04T23:10:05.593Z,100.00
2023-04-04T23:12:32.061Z,100.00
2023-04-04T23:14:58.822Z,100.00
2023-04-04T23:17:25.591Z,100.00
2023-04-04T23:19:52.049Z,100.00
2023-04-04T23:22:18.539Z,100.00
2023-04-04T23:24:45.106Z,100.00
2023-04-04T23:27:12.587Z,100.00
2023-04-04T23:29:39.025Z,100.00
2023-04-04T23:32:05.824Z,100.00
2023-04-04T23:34:32.348Z,100.00
2023-04-04T23:36:58.789Z,100.00
2023-04-04T23:39:25.366Z,100.00
2023-04-04T23:41:51.827Z,100.00
2023-04-04T23:44:18.289Z,100.00
2023-04-04T23:46:45.632Z,100.00
2023-04-04T23:49:12.690Z,100.00
2023-04-04T23:51:40.353Z,100.00
2023-04-04T23:54:07.675Z,100.00
2023-04-04T23:56:34.833Z,100.00
2023-04-04T23:59:01.680Z,100.00
